createdAt,value
2017-09-08T00:00:57.287Z,4.72
2017-09-08T00:03:23.734Z,3.92
2017-09-08T00:05:50.182Z,3.95
2017-09-08T00:08:16.642Z,3.80
2017-09-08T00:10:43.106Z,3.50
2017-09-08T00:13:09.603Z,4.07
2017-09-08T00:15:36.017Z,4.00
2017-09-08T00:18:02.437Z,3.60
2017-09-08T00:20:28.904Z,4.10
2017-09-08T00:22:56.087Z,4.28
2017-09-08T00:25:22.564Z,3.50
2017-09-08T00:27:48.969Z,3.67
2017-09-08T00:30:15.414Z,4.20
2017-09-08T00:32:41.894Z,4.40
2017-09-08T00:35:09.054Z,4.18
2017-09-08T00:37:36.252Z,4.28
2017-09-08T00:40:02.729Z,4.55
2017-09-08T00:42:29.933Z,3.95
2017-09-08T00:44:56.374Z,4.18
2017-09-08T00:47:22.808Z,3.87
2017-09-08T00:49:49.241Z,3.92
2017-09-08T00:52:15.698Z,3.65
2017-09-08T00:54:42.221Z,4.05
2017-09-08T00:57:08.698Z,4.30
2017-09-08T00:59:35.189Z,4.03
2017-09-08T01:02:01.644Z,3.65
2017-09-08T01:04:28.850Z,3.87
2017-09-08T01:06:55.291Z,3.70
2017-09-08T01:09:21.735Z,3.78
2017-09-08T01:11:48.202Z,3.50
2017-09-08T01:14:15.440Z,4.25
2017-09-08T01:16:42.646Z,4.78
2017-09-08T01:19:09.193Z,4.10
2017-09-08T01:21:35.681Z,5.35
2017-09-08T01:24:02.858Z,3.45
2017-09-08T01:26:29.265Z,3.58
2017-09-08T01:28:55.736Z,3.12
2017-09-08T01:31:22.165Z,3.62
2017-09-08T01:33:48.617Z,3.80
2017-09-08T01:36:15.074Z,3.75
2017-09-08T01:38:41.525Z,3.85
2017-09-08T01:41:07.974Z,3.75
2017-09-08T01:43:34.406Z,4.45
2017-09-08T01:46:00.873Z,3.70
2017-09-08T01:48:27.321Z,4.37
2017-09-08T01:50:53.741Z,4.15
2017-09-08T01:53:20.157Z,4.15
2017-09-08T01:55:46.634Z,4.45
2017-09-08T01:58:13.805Z,3.67
2017-09-08T02:00:40.987Z,5.05
2017-09-08T02:03:07.453Z,4.65
2017-09-08T02:05:33.998Z,4.62
2017-09-08T02:08:00.405Z,4.80
2017-09-08T02:10:26.876Z,4.05
2017-09-08T02:12:53.371Z,4.18
2017-09-08T02:15:19.853Z,5.47
2017-09-08T02:17:47.066Z,4.57
2017-09-08T02:20:13.533Z,5.47
2017-09-08T02:22:40.750Z,4.97
2017-09-08T02:25:07.182Z,4.55
2017-09-08T02:27:33.631Z,4.50
2017-09-08T02:30:00.807Z,5.07
2017-09-08T02:32:27.978Z,4.65
2017-09-08T02:34:55.158Z,4.40
2017-09-08T02:37:21.569Z,4.70
2017-09-08T02:39:47.996Z,4.20
2017-09-08T02:42:14.441Z,4.45
2017-09-08T02:44:40.915Z,4.37
2017-09-08T02:47:07.347Z,4.53
2017-09-08T02:49:33.749Z,4.00
2017-09-08T02:52:00.169Z,4.40
2017-09-08T02:54:26.609Z,3.85
2017-09-08T02:56:53.089Z,4.30
2017-09-08T02:59:19.569Z,4.22
2017-09-08T03:01:46.009Z,4.93
2017-09-08T03:04:12.474Z,4.15
2017-09-08T03:06:38.954Z,4.68
2017-09-08T03:09:05.394Z,3.90
2017-09-08T03:11:31.801Z,4.50
2017-09-08T03:13:58.989Z,3.75
2017-09-08T03:16:25.416Z,4.37
2017-09-08T03:18:51.872Z,4.68
2017-09-08T03:21:18.383Z,3.95
2017-09-08T03:23:44.820Z,3.62
2017-09-08T03:26:11.241Z,4.12
2017-09-08T03:28:37.670Z,3.50
2017-09-08T03:31:04.127Z,4.03
2017-09-08T03:33:30.557Z,3.95
2017-09-08T03:35:56.981Z,3.90
2017-09-08T03:38:23.426Z,3.97
2017-09-08T03:40:49.841Z,3.85
2017-09-08T03:43:16.282Z,4.30
2017-09-08T03:45:42.730Z,3.83
2017-09-08T03:48:09.206Z,4.07
2017-09-08T03:50:35.634Z,4.18
2017-09-08T03:53:02.822Z,4.20
2017-09-08T03:55:29.263Z,5.70
2017-09-08T03:57:55.676Z,4.43
2017-09-08T04:00:22.836Z,4.32
2017-09-08T04:02:49.302Z,4.05
2017-09-08T04:05:15.738Z,4.80
2017-09-08T04:07:42.998Z,4.07
2017-09-08T04:10:09.470Z,4.47
2017-09-08T04:12:35.898Z,3.90
2017-09-08T04:15:03.046Z,4.32
2017-09-08T04:17:29.518Z,3.72
2017-09-08T04:19:55.994Z,3.80
2017-09-08T04:22:23.189Z,4.70
2017-09-08T04:24:49.613Z,4.10
2017-09-08T04:27:16.039Z,4.20
2017-09-08T04:29:43.266Z,4.20
2017-09-08T04:32:09.742Z,4.15
2017-09-08T04:34:36.150Z,3.95
2017-09-08T04:37:02.584Z,3.90
2017-09-08T04:39:29.761Z,4.55
2017-09-08T04:41:56.169Z,3.80
2017-09-08T04:44:22.641Z,4.10
2017-09-08T04:46:49.053Z,4.00
2017-09-08T04:49:15.481Z,3.60
2017-09-08T04:51:41.909Z,4.07
2017-09-08T04:54:08.392Z,3.72
2017-09-08T04:56:35.601Z,3.40
2017-09-08T04:59:02.057Z,5.07
2017-09-08T05:01:28.473Z,3.85
2017-09-08T05:03:54.925Z,4.72
2017-09-08T05:06:21.379Z,4.15
2017-09-08T05:08:47.802Z,3.87
2017-09-08T05:11:14.235Z,4.05
2017-09-08T05:13:40.773Z,4.10
2017-09-08T05:16:07.218Z,4.05
2017-09-08T05:18:34.449Z,4.32
2017-09-08T05:21:00.905Z,3.45
2017-09-08T05:23:27.413Z,4.20
2017-09-08T05:25:53.861Z,3.80
2017-09-08T05:28:21.074Z,3.58
2017-09-08T05:30:47.537Z,3.85
2017-09-08T05:33:13.965Z,4.20
2017-09-08T05:35:40.423Z,4.32
2017-09-08T05:38:06.863Z,3.72
2017-09-08T05:40:34.041Z,4.22
2017-09-08T05:43:00.516Z,3.67
2017-09-08T05:45:26.944Z,4.05
2017-09-08T05:47:53.390Z,3.12
2017-09-08T05:50:20.601Z,4.07
2017-09-08T05:52:47.115Z,3.37
2017-09-08T05:55:13.573Z,4.60
2017-09-08T05:57:40.002Z,4.75
2017-09-08T06:00:06.413Z,3.53
2017-09-08T06:02:32.920Z,5.15
2017-09-08T06:04:59.397Z,4.35
2017-09-08T06:07:25.806Z,3.97
2017-09-08T06:09:52.992Z,4.05
2017-09-08T06:12:19.462Z,4.10
2017-09-08T06:14:45.929Z,3.95
2017-09-08T06:17:13.112Z,3.58
2017-09-08T06:19:39.534Z,3.95
2017-09-08T06:22:06.001Z,3.87
2017-09-08T06:24:33.146Z,3.90
2017-09-08T06:27:01.192Z,3.55
2017-09-08T06:29:27.690Z,3.95
2017-09-08T06:31:54.143Z,4.07
2017-09-08T06:34:21.425Z,3.97
2017-09-08T06:36:47.850Z,3.25
2017-09-08T06:39:14.276Z,4.60
2017-09-08T06:41:40.766Z,4.30
2017-09-08T06:44:07.930Z,3.83
2017-09-08T06:46:35.144Z,4.10
2017-09-08T06:49:01.572Z,3.85
2017-09-08T06:51:28.802Z,3.35
2017-09-08T06:53:55.678Z,3.72
2017-09-08T06:56:22.148Z,3.85
2017-09-08T06:58:48.661Z,3.53
2017-09-08T07:01:15.127Z,3.72
2017-09-08T07:03:41.549Z,4.05
2017-09-08T07:06:08.014Z,3.25
2017-09-08T07:08:34.459Z,3.78
2017-09-08T07:11:00.901Z,4.55
2017-09-08T07:13:27.353Z,3.78
2017-09-08T07:15:53.775Z,4.03
2017-09-08T07:18:20.992Z,3.37
2017-09-08T07:20:47.469Z,4.22
2017-09-08T07:23:14.652Z,4.10
2017-09-08T07:25:41.133Z,3.62
2017-09-08T07:28:08.338Z,3.40
2017-09-08T07:30:35.528Z,4.00
2017-09-08T07:33:02.002Z,3.83
2017-09-08T07:35:28.453Z,3.45
2017-09-08T07:37:54.926Z,4.55
2017-09-08T07:40:21.383Z,3.85
2017-09-08T07:42:47.899Z,3.47
2017-09-08T07:45:14.359Z,4.37
2017-09-08T07:47:40.782Z,3.20
2017-09-08T07:50:07.217Z,3.95
2017-09-08T07:52:33.650Z,3.03
2017-09-08T07:55:00.871Z,3.62
2017-09-08T07:57:27.562Z,3.42
2017-09-08T07:59:54.729Z,3.70
2017-09-08T08:02:21.897Z,3.55
2017-09-08T08:04:48.335Z,4.50
2017-09-08T08:07:14.759Z,3.75
2017-09-08T08:09:41.216Z,3.87
2017-09-08T08:12:07.707Z,3.65
2017-09-08T08:14:34.153Z,3.85
2017-09-08T08:17:00.597Z,3.70
2017-09-08T08:19:27.050Z,3.87
2017-09-08T08:21:53.529Z,4.05
2017-09-08T08:24:20.682Z,3.92
2017-09-08T08:26:47.861Z,4.00
2017-09-08T08:29:14.309Z,3.90
2017-09-08T08:31:40.761Z,3.45
2017-09-08T08:34:07.197Z,4.30
2017-09-08T08:36:33.643Z,4.10
2017-09-08T08:39:00.313Z,3.97
2017-09-08T08:41:27.469Z,4.05
2017-09-08T08:43:53.915Z,4.35
2017-09-08T08:46:20.365Z,3.58
2017-09-08T08:48:46.865Z,3.90
2017-09-08T08:51:13.257Z,4.37
2017-09-08T08:53:39.689Z,3.92
2017-09-08T08:56:06.896Z,3.25
2017-09-08T08:58:33.363Z,3.55
2017-09-08T09:00:59.795Z,3.67
2017-09-08T09:03:26.258Z,3.55
2017-09-08T09:05:52.725Z,4.37
2017-09-08T09:08:19.157Z,4.20
2017-09-08T09:10:45.611Z,3.87
2017-09-08T09:13:12.049Z,4.30
2017-09-08T09:15:38.526Z,4.10
2017-09-08T09:18:04.961Z,4.12
2017-09-08T09:20:32.129Z,3.50
2017-09-08T09:22:58.626Z,4.03
2017-09-08T09:25:25.814Z,3.60
2017-09-08T09:27:52.329Z,4.10
2017-09-08T09:30:19.482Z,4.15
2017-09-08T09:32:46.665Z,4.50
2017-09-08T09:35:13.094Z,4.28
2017-09-08T09:37:39.564Z,3.37
2017-09-08T09:40:06.793Z,4.65
2017-09-08T09:42:33.202Z,4.55
2017-09-08T09:44:59.646Z,4.47
2017-09-08T09:47:26.282Z,4.85
2017-09-08T09:49:52.688Z,3.83
2017-09-08T09:52:19.263Z,3.83
2017-09-08T09:54:46.818Z,3.40
2017-09-08T09:57:13.266Z,4.03
2017-09-08T09:59:40.221Z,4.10
2017-09-08T10:02:06.672Z,3.50
2017-09-08T10:04:33.862Z,3.85
2017-09-08T10:07:00.415Z,4.32
2017-09-08T10:09:26.862Z,3.72
2017-09-08T10:11:53.341Z,3.85
2017-09-08T10:14:20.540Z,4.47
2017-09-08T10:16:47.093Z,4.72
2017-09-08T10:19:13.518Z,4.30
2017-09-08T10:21:39.950Z,5.53
2017-09-08T10:24:06.422Z,5.12
2017-09-08T10:26:33.618Z,5.28
2017-09-08T10:29:00.130Z,4.90
2017-09-08T10:31:26.578Z,5.50
2017-09-08T10:33:53.025Z,5.43
2017-09-08T10:36:19.512Z,5.15
2017-09-08T10:38:46.689Z,5.32
2017-09-08T10:41:13.191Z,5.00
2017-09-08T10:43:40.346Z,4.95
2017-09-08T10:46:07.491Z,4.78
2017-09-08T10:48:34.668Z,4.72
2017-09-08T10:51:01.104Z,4.70
2017-09-08T10:53:27.555Z,4.87
2017-09-08T10:55:53.969Z,4.70
2017-09-08T10:58:20.425Z,4.90
2017-09-08T11:00:46.894Z,5.05
2017-09-08T11:03:13.357Z,5.15
2017-09-08T11:05:39.813Z,5.70
2017-09-08T11:08:06.274Z,5.90
2017-09-08T11:10:32.743Z,5.62
2017-09-08T11:12:59.205Z,5.78
2017-09-08T11:15:25.654Z,6.75
2017-09-08T11:17:52.077Z,5.57
2017-09-08T11:20:18.592Z,6.25
2017-09-08T11:22:45.050Z,6.90
2017-09-08T11:25:11.514Z,8.82
2017-09-08T11:27:38.709Z,8.05
2017-09-08T11:30:05.139Z,7.80
2017-09-08T11:32:37.792Z,8.63
2017-09-08T11:35:10.941Z,8.35
2017-09-08T11:37:37.416Z,8.88
2017-09-08T11:40:04.618Z,9.50
2017-09-08T11:42:31.126Z,9.30
2017-09-08T11:44:57.542Z,9.82
2017-09-08T11:47:24.734Z,8.45
2017-09-08T11:49:51.178Z,9.68
2017-09-08T11:52:17.631Z,10.15
2017-09-08T11:54:44.078Z,9.68
2017-09-08T11:57:10.537Z,10.73
2017-09-08T11:59:36.982Z,9.93
2017-09-08T12:02:03.472Z,9.60
2017-09-08T12:04:30.047Z,10.07
2017-09-08T12:06:56.466Z,10.02
2017-09-08T12:09:23.605Z,10.88
2017-09-08T12:11:50.795Z,10.27
2017-09-08T12:14:17.205Z,9.88
2017-09-08T12:16:44.392Z,10.30
2017-09-08T12:19:10.800Z,9.43
2017-09-08T12:21:37.284Z,10.65
2017-09-08T12:24:03.894Z,10.63
2017-09-08T12:26:30.326Z,10.68
2017-09-08T12:28:56.782Z,9.60
2017-09-08T12:31:23.226Z,9.30
2017-09-08T12:33:49.709Z,10.70
2017-09-08T12:36:16.175Z,9.98
2017-09-08T12:38:42.668Z,9.95
2017-09-08T12:41:09.830Z,10.32
2017-09-08T12:43:37.057Z,9.10
2017-09-08T12:46:04.238Z,9.13
2017-09-08T12:48:30.737Z,10.23
2017-09-08T12:50:57.197Z,9.05
2017-09-08T12:53:23.655Z,9.63
2017-09-08T12:55:50.097Z,9.93
2017-09-08T12:58:17.313Z,9.40
2017-09-08T13:00:44.055Z,10.02
2017-09-08T13:03:10.474Z,10.07
2017-09-08T13:05:36.904Z,9.00
2017-09-08T13:08:04.085Z,8.82
2017-09-08T13:10:30.533Z,9.45
2017-09-08T13:12:56.945Z,9.25
2017-09-08T13:15:23.421Z,8.90
2017-09-08T13:17:49.901Z,8.77
2017-09-08T13:20:16.349Z,8.55
2017-09-08T13:22:42.801Z,7.75
2017-09-08T13:25:09.223Z,8.60
2017-09-08T13:27:35.704Z,7.72
2017-09-08T13:30:02.160Z,7.95
2017-09-08T13:32:28.579Z,7.45
2017-09-08T13:34:55.780Z,6.50
2017-09-08T13:37:22.206Z,6.22
2017-09-08T13:39:48.664Z,6.68
2017-09-08T13:42:15.097Z,6.30
2017-09-08T13:44:42.281Z,6.80
2017-09-08T13:47:09.549Z,6.35
2017-09-08T13:49:35.952Z,7.05
2017-09-08T13:52:03.118Z,6.57
2017-09-08T13:54:29.621Z,6.30
2017-09-08T13:56:56.018Z,6.45
2017-09-08T13:59:22.468Z,6.68
2017-09-08T14:01:48.950Z,7.32
2017-09-08T14:04:15.433Z,6.97
2017-09-08T14:06:41.898Z,7.55
2017-09-08T14:09:09.071Z,7.78
2017-09-08T14:11:36.233Z,7.12
2017-09-08T14:14:02.877Z,7.57
2017-09-08T14:16:29.317Z,7.78
2017-09-08T14:18:55.741Z,7.03
2017-09-08T14:21:22.170Z,7.95
2017-09-08T14:23:48.609Z,7.60
2017-09-08T14:26:15.122Z,7.05
2017-09-08T14:28:41.557Z,6.78
2017-09-08T14:31:08.014Z,7.62
2017-09-08T14:33:34.435Z,7.70
2017-09-08T14:36:00.915Z,6.70
2017-09-08T14:38:27.618Z,7.05
2017-09-08T14:40:54.094Z,7.37
2017-09-08T14:43:20.542Z,7.40
2017-09-08T14:45:47.716Z,7.05
2017-09-08T14:48:14.157Z,6.40
2017-09-08T14:50:40.615Z,6.65
2017-09-08T14:53:07.031Z,6.85
2017-09-08T14:55:33.483Z,6.45
2017-09-08T14:57:59.920Z,6.85
2017-09-08T15:00:26.342Z,6.37
2017-09-08T15:02:52.800Z,6.28
2017-09-08T15:05:19.244Z,6.80
2017-09-08T15:07:46.449Z,5.97
2017-09-08T15:10:12.850Z,5.18
2017-09-08T15:12:40.030Z,5.75
2017-09-08T15:15:06.462Z,5.55
2017-09-08T15:17:32.915Z,5.75
2017-09-08T15:19:59.350Z,5.97
2017-09-08T15:22:26.569Z,5.40
2017-09-08T15:24:53.048Z,5.20
2017-09-08T15:27:19.503Z,5.82
2017-09-08T15:29:45.980Z,5.57
2017-09-08T15:32:12.397Z,6.05
2017-09-08T15:34:38.878Z,6.40
2017-09-08T15:37:05.302Z,5.70
2017-09-08T15:39:31.723Z,6.32
2017-09-08T15:41:58.164Z,5.25
2017-09-08T15:44:24.641Z,5.65
2017-09-08T15:46:51.826Z,4.95
2017-09-08T15:49:18.241Z,5.93
2017-09-08T15:51:44.650Z,5.00
2017-09-08T15:54:11.870Z,5.20
2017-09-08T15:56:38.337Z,5.30
2017-09-08T15:59:04.738Z,4.68
2017-09-08T16:01:31.182Z,4.62
2017-09-08T16:03:57.658Z,4.75
2017-09-08T16:06:24.129Z,4.70
2017-09-08T16:08:50.545Z,4.95
2017-09-08T16:11:17.021Z,4.45
2017-09-08T16:13:43.428Z,4.57
2017-09-08T16:16:09.984Z,6.50
2017-09-08T16:18:36.443Z,5.90
2017-09-08T16:21:03.605Z,4.65
2017-09-08T16:23:30.047Z,4.18
2017-09-08T16:25:56.566Z,4.40
2017-09-08T16:28:22.980Z,5.30
2017-09-08T16:30:50.186Z,4.65
2017-09-08T16:33:16.677Z,4.87
2017-09-08T16:35:43.869Z,4.90
2017-09-08T16:38:10.357Z,4.40
2017-09-08T16:40:36.863Z,4.47
2017-09-08T16:43:03.273Z,4.10
2017-09-08T16:45:29.693Z,4.93
2017-09-08T16:47:56.146Z,4.40
2017-09-08T16:50:22.575Z,4.22
2017-09-08T16:52:49.822Z,4.30
2017-09-08T16:55:16.309Z,4.10
2017-09-08T16:57:42.761Z,4.72
2017-09-08T17:00:09.983Z,4.30
2017-09-08T17:02:36.497Z,4.55
2017-09-08T17:05:03.027Z,4.28
2017-09-08T17:07:29.510Z,5.37
2017-09-08T17:09:55.974Z,4.57
2017-09-08T17:12:23.217Z,4.95
2017-09-08T17:14:49.634Z,5.37
2017-09-08T17:17:16.104Z,5.00
2017-09-08T17:19:43.343Z,5.37
2017-09-08T17:22:09.781Z,5.10
2017-09-08T17:24:36.258Z,4.87
2017-09-08T17:27:03.474Z,14.55
2017-09-08T17:29:29.905Z,18.35
2017-09-08T17:31:56.726Z,7.37
2017-09-08T17:34:23.179Z,6.90
2017-09-08T17:36:49.590Z,6.22
2017-09-08T17:39:16.038Z,6.50
2017-09-08T17:41:42.469Z,6.60
2017-09-08T17:44:08.927Z,7.40
2017-09-08T17:46:35.387Z,6.05
2017-09-08T17:49:01.872Z,5.32
2017-09-08T17:51:28.339Z,5.28
2017-09-08T17:53:54.831Z,5.93
2017-09-08T17:56:21.310Z,5.65
2017-09-08T17:58:48.509Z,5.70
2017-09-08T18:01:15.006Z,5.03
2017-09-08T18:03:42.198Z,5.45
2017-09-08T18:06:08.619Z,7.45
2017-09-08T18:08:35.081Z,6.57
2017-09-08T18:11:01.542Z,6.57
2017-09-08T18:13:27.960Z,5.97
2017-09-08T18:15:55.189Z,6.65
2017-09-08T18:18:21.626Z,4.75
2017-09-08T18:20:48.074Z,5.50
2017-09-08T18:23:14.558Z,6.18
2017-09-08T18:25:41.018Z,6.43
2017-09-08T18:28:07.517Z,5.75
2017-09-08T18:30:33.947Z,6.07
2017-09-08T18:33:00.431Z,6.55
2017-09-08T18:35:26.981Z,8.70
2017-09-08T18:37:53.423Z,8.70
2017-09-08T18:40:19.882Z,11.57
2017-09-08T18:42:46.330Z,11.98
2017-09-08T18:45:12.806Z,8.02
2017-09-08T18:47:39.989Z,7.30
2017-09-08T18:50:07.228Z,6.65
2017-09-08T18:52:34.413Z,7.12
2017-09-08T18:55:00.903Z,8.27
2017-09-08T18:57:27.353Z,8.50
2017-09-08T18:59:54.590Z,10.60
2017-09-08T19:02:21.056Z,12.85
2017-09-08T19:04:47.523Z,13.32
2017-09-08T19:07:13.992Z,11.18
2017-09-08T19:09:40.508Z,8.85
2017-09-08T19:12:06.953Z,9.00
2017-09-08T19:14:34.167Z,7.50
2017-09-08T19:17:02.858Z,8.98
2017-09-08T19:19:30.073Z,7.00
2017-09-08T19:21:57.262Z,6.10
2017-09-08T19:24:23.730Z,6.12
2017-09-08T19:26:50.185Z,6.28
2017-09-08T19:29:16.630Z,6.85
2017-09-08T19:31:43.119Z,6.60
2017-09-08T19:34:09.609Z,7.87
2017-09-08T19:36:36.079Z,6.95
2017-09-08T19:39:02.603Z,6.20
2017-09-08T19:41:29.116Z,5.25
2017-09-08T19:43:55.602Z,4.62
2017-09-08T19:46:22.770Z,4.70
2017-09-08T19:48:49.261Z,4.65
2017-09-08T19:51:15.698Z,4.80
2017-09-08T19:53:42.181Z,4.65
2017-09-08T19:56:08.649Z,4.65
2017-09-08T19:58:35.151Z,5.35
2017-09-08T20:01:01.586Z,5.30
2017-09-08T20:03:28.068Z,4.80
2017-09-08T20:05:54.554Z,3.65
2017-09-08T20:08:20.995Z,5.15
2017-09-08T20:10:47.454Z,4.45
2017-09-08T20:13:13.865Z,5.60
2017-09-08T20:15:40.369Z,4.47
2017-09-08T20:18:06.862Z,5.05
2017-09-08T20:33:41.194Z,4.80
2017-09-08T20:36:08.370Z,4.93
2017-09-08T20:38:34.819Z,4.72
2017-09-08T20:41:01.261Z,4.72
2017-09-08T20:43:27.660Z,6.03
2017-09-08T20:45:54.093Z,4.35
2017-09-08T20:48:21.291Z,4.20
2017-09-08T20:50:47.756Z,7.00
2017-09-08T20:53:14.913Z,4.90
2017-09-08T20:55:42.145Z,4.82
2017-09-08T20:58:08.653Z,4.62
2017-09-08T21:00:35.096Z,4.65
2017-09-08T21:03:01.584Z,4.90
2017-09-08T21:05:28.162Z,5.53
2017-09-08T21:07:54.689Z,5.10
2017-09-08T21:10:21.227Z,5.75
2017-09-08T21:12:48.514Z,5.22
2017-09-08T21:15:15.684Z,4.68
2017-09-08T21:17:42.230Z,4.57
2017-09-08T21:20:08.700Z,4.37
2017-09-08T21:22:35.200Z,4.95
2017-09-08T21:25:01.677Z,4.60
2017-09-08T21:27:28.130Z,5.22
2017-09-08T21:29:55.314Z,4.45
2017-09-08T21:32:22.553Z,3.87
2017-09-08T21:34:49.862Z,4.05
2017-09-08T21:37:16.334Z,4.50
2017-09-08T21:39:43.513Z,4.80
2017-09-08T21:42:10.096Z,3.97
2017-09-08T21:44:36.573Z,3.95
2017-09-08T21:47:03.028Z,4.12
2017-09-08T21:49:29.498Z,4.62
2017-09-08T21:51:55.922Z,4.25
2017-09-08T21:54:22.338Z,4.20
2017-09-08T21:56:49.540Z,4.00
2017-09-08T21:59:16.692Z,3.95
2017-09-08T22:01:43.878Z,4.10
2017-09-08T22:04:10.423Z,3.60
2017-09-08T22:06:36.906Z,3.47
2017-09-08T22:09:03.397Z,4.53
2017-09-08T22:11:29.853Z,3.95
2017-09-08T22:13:57.090Z,3.45
2017-09-08T22:16:24.282Z,3.60
2017-09-08T22:18:51.457Z,3.70
2017-09-08T22:21:17.889Z,3.58
2017-09-08T22:23:44.312Z,3.60
2017-09-08T22:26:10.763Z,3.28
2017-09-08T22:28:37.213Z,3.90
2017-09-08T22:31:03.659Z,3.00
2017-09-08T22:33:30.085Z,4.00
2017-09-08T22:35:56.555Z,4.43
2017-09-08T22:38:23.713Z,3.40
2017-09-08T22:40:50.886Z,3.20
2017-09-08T22:43:17.357Z,3.20
2017-09-08T22:45:43.786Z,3.10
2017-09-08T22:48:10.965Z,2.70
2017-09-08T22:50:37.378Z,2.78
2017-09-08T22:53:03.802Z,2.90
2017-09-08T22:55:30.234Z,2.60
2017-09-08T22:57:56.663Z,2.90
2017-09-08T23:00:23.085Z,2.35
2017-09-08T23:02:49.573Z,2.30
2017-09-08T23:05:16.046Z,2.70
2017-09-08T23:07:42.505Z,2.85
2017-09-08T23:10:08.953Z,2.97
2017-09-08T23:12:35.409Z,2.72
2017-09-08T23:15:02.577Z,3.08
2017-09-08T23:17:29.011Z,2.70
2017-09-08T23:19:55.512Z,2.65
2017-09-08T23:22:22.670Z,3.33
2017-09-08T23:24:49.830Z,3.00
2017-09-08T23:27:16.310Z,2.83
2017-09-08T23:29:42.723Z,3.70
2017-09-08T23:32:09.130Z,3.00
2017-09-08T23:34:36.282Z,2.85
2017-09-08T23:37:02.729Z,2.90
2017-09-08T23:39:29.154Z,3.03
2017-09-08T23:41:55.645Z,3.25
2017-09-08T23:44:22.083Z,3.30
2017-09-08T23:46:49.291Z,3.30
2017-09-08T23:49:15.746Z,3.60
2017-09-08T23:51:42.194Z,3.55
2017-09-08T23:54:08.635Z,3.72
2017-09-08T23:56:35.029Z,3.50
2017-09-08T23:59:01.559Z,4.60
